EFW57M EGKK-LSGG
Flight info
| Callsign | EFW57M |
|---|---|
| Flight time | 1h 8m |
| Altitude | 35000 |
| Route | BOGNA1X BOGNA L612 BENBO UL612 RESMI UM975 PEKIM DCT PILUL DCT PIMUP/N0422F270 DCT PIXIS DCT PIBAT/N0397F230 DCT LUSAR LUSAR2N |
| Aircraft | A321/M-SDE3FGIJ1KRWXY/SB1 |
Departure
| Time | 2026-04-16 09:11 |
|---|---|
| Airport | London Gatwick Airport (EGKK) |
Arrival
| Time | 2026-04-16 10:19 |
|---|---|
| Airport | Geneva International Airport (LSGG) |
| Time | Latitude | Longitude | Altitude | Speed | Heading |
|---|---|---|---|---|---|
| 2026-04-16 08:46 | 51.15404 | -0.16413 | 206 ft | 0 kts | 77° |
| 2026-04-16 08:58 | 51.15399 | -0.16450 | 215 ft | 0 kts | 78° |
| 2026-04-16 09:03 | 51.15397 | -0.16479 | 216 ft | 4 kts | 104° |
| 2026-04-16 09:03 | 51.15410 | -0.16507 | 217 ft | 4 kts | 161° |
| 2026-04-16 09:03 | 51.15433 | -0.16517 | 213 ft | 1 kts | 165° |
| 2026-04-16 09:04 | 51.15434 | -0.16517 | 213 ft | 0 kts | 165° |
| 2026-04-16 09:06 | 51.15433 | -0.16517 | 213 ft | 0 kts | 165° |
| 2026-04-16 09:06 | 51.15405 | -0.16505 | 219 ft | 14 kts | 165° |
| 2026-04-16 09:07 | 51.15327 | -0.16479 | 203 ft | 5 kts | 179° |
| 2026-04-16 09:07 | 51.15316 | -0.16492 | 216 ft | 0 kts | 224° |
| 2026-04-16 09:08 | 51.15316 | -0.16493 | 205 ft | 1 kts | 224° |
| 2026-04-16 09:08 | 51.15304 | -0.16516 | 217 ft | 3 kts | 236° |
| 2026-04-16 09:09 | 51.15294 | -0.16556 | 208 ft | 4 kts | 252° |
| 2026-04-16 09:09 | 51.15288 | -0.16599 | 215 ft | 5 kts | 258° |
| 2026-04-16 09:09 | 51.15270 | -0.16642 | 214 ft | 5 kts | 217° |
| 2026-04-16 09:09 | 51.15232 | -0.16648 | 215 ft | 8 kts | 175° |
| 2026-04-16 09:10 | 51.15166 | -0.16646 | 211 ft | 10 kts | 202° |
| 2026-04-16 09:10 | 51.15127 | -0.16752 | 215 ft | 22 kts | 256° |
| 2026-04-16 09:10 | 51.15039 | -0.17390 | 216 ft | 93 kts | 257° |
| 2026-04-16 09:10 | 51.14853 | -0.18725 | 209 ft | 151 kts | 258° |
| 2026-04-16 09:11 | 51.14609 | -0.20563 | 433 ft | 177 kts | 255° |
| 2026-04-16 09:11 | 51.14340 | -0.22475 | 1213 ft | 176 kts | 255° |
| 2026-04-16 09:11 | 51.14072 | -0.24394 | 1852 ft | 183 kts | 256° |
| 2026-04-16 09:11 | 51.13779 | -0.26487 | 2174 ft | 203 kts | 256° |
| 2026-04-16 09:12 | 51.13464 | -0.28736 | 2678 ft | 210 kts | 256° |
| 2026-04-16 09:12 | 51.13147 | -0.31015 | 3321 ft | 212 kts | 257° |
| 2026-04-16 09:12 | 51.12828 | -0.33322 | 4021 ft | 214 kts | 257° |
| 2026-04-16 09:12 | 51.12505 | -0.35642 | 4734 ft | 218 kts | 256° |
| 2026-04-16 09:13 | 51.12175 | -0.38009 | 5040 ft | 219 kts | 256° |
| 2026-04-16 09:13 | 51.11606 | -0.40229 | 5731 ft | 219 kts | 233° |
| 2026-04-16 09:13 | 51.10423 | -0.41704 | 6453 ft | 225 kts | 204° |
| 2026-04-16 09:13 | 51.08832 | -0.42019 | 7112 ft | 234 kts | 180° |
| 2026-04-16 09:14 | 51.07191 | -0.41806 | 7675 ft | 243 kts | 180° |
| 2026-04-16 09:14 | 51.05450 | -0.41574 | 7927 ft | 264 kts | 179° |
| 2026-04-16 09:14 | 51.03586 | -0.41326 | 8461 ft | 272 kts | 179° |
| 2026-04-16 09:14 | 51.01685 | -0.41072 | 9105 ft | 276 kts | 179° |
| 2026-04-16 09:15 | 50.99756 | -0.40817 | 9769 ft | 280 kts | 179° |
| 2026-04-16 09:15 | 50.97805 | -0.40561 | 10406 ft | 283 kts | 180° |
| 2026-04-16 09:15 | 50.95833 | -0.40307 | 10995 ft | 286 kts | 180° |
| 2026-04-16 09:15 | 50.93836 | -0.40051 | 11590 ft | 290 kts | 180° |
| 2026-04-16 09:16 | 50.91810 | -0.39790 | 12183 ft | 293 kts | 180° |
| 2026-04-16 09:16 | 50.89766 | -0.39531 | 12793 ft | 296 kts | 180° |
| 2026-04-16 09:16 | 50.87697 | -0.39276 | 13400 ft | 300 kts | 180° |
| 2026-04-16 09:16 | 50.85603 | -0.39019 | 13988 ft | 304 kts | 180° |
| 2026-04-16 09:17 | 50.83501 | -0.38376 | 14512 ft | 313 kts | 166° |
| 2026-04-16 09:17 | 50.81458 | -0.36895 | 14695 ft | 336 kts | 152° |
| 2026-04-16 09:17 | 50.79457 | -0.34806 | 14823 ft | 353 kts | 150° |
| 2026-04-16 09:17 | 50.77364 | -0.32613 | 14951 ft | 369 kts | 150° |
| 2026-04-16 09:18 | 50.75179 | -0.30338 | 15096 ft | 383 kts | 150° |
| 2026-04-16 09:18 | 50.72934 | -0.28008 | 15471 ft | 389 kts | 150° |
| 2026-04-16 09:18 | 50.70665 | -0.25650 | 15946 ft | 392 kts | 150° |
| 2026-04-16 09:18 | 50.68381 | -0.23275 | 16445 ft | 394 kts | 150° |
| 2026-04-16 09:19 | 50.66081 | -0.20868 | 16943 ft | 397 kts | 150° |
| 2026-04-16 09:19 | 50.63779 | -0.18446 | 17405 ft | 400 kts | 150° |
| 2026-04-16 09:19 | 50.61451 | -0.15996 | 17865 ft | 403 kts | 150° |
| 2026-04-16 09:19 | 50.59108 | -0.13540 | 18332 ft | 406 kts | 150° |
| 2026-04-16 09:20 | 50.56747 | -0.11071 | 18733 ft | 409 kts | 151° |
| 2026-04-16 09:20 | 50.54371 | -0.08589 | 19115 ft | 411 kts | 151° |
| 2026-04-16 09:20 | 50.51980 | -0.06095 | 19502 ft | 414 kts | 151° |
| 2026-04-16 09:20 | 50.49572 | -0.03590 | 19883 ft | 416 kts | 151° |
| 2026-04-16 09:21 | 50.47181 | -0.01108 | 20270 ft | 419 kts | 151° |
| 2026-04-16 09:21 | 50.44740 | 0.01419 | 20641 ft | 421 kts | 151° |
| 2026-04-16 09:21 | 50.42283 | 0.03955 | 21021 ft | 424 kts | 151° |
| 2026-04-16 09:21 | 50.39814 | 0.06506 | 21386 ft | 426 kts | 151° |
| 2026-04-16 09:22 | 50.37328 | 0.09081 | 21758 ft | 429 kts | 151° |
| 2026-04-16 09:22 | 50.34833 | 0.11664 | 22120 ft | 431 kts | 151° |
| 2026-04-16 09:22 | 50.32323 | 0.14257 | 22493 ft | 434 kts | 151° |
| 2026-04-16 09:22 | 50.29792 | 0.16867 | 22857 ft | 436 kts | 152° |
| 2026-04-16 09:23 | 50.27251 | 0.19483 | 23216 ft | 439 kts | 152° |
| 2026-04-16 09:23 | 50.24693 | 0.22111 | 23566 ft | 441 kts | 152° |
| 2026-04-16 09:23 | 50.22123 | 0.24748 | 23899 ft | 444 kts | 152° |
| 2026-04-16 09:23 | 50.19533 | 0.27405 | 24184 ft | 446 kts | 152° |
| 2026-04-16 09:24 | 50.16932 | 0.30077 | 24449 ft | 449 kts | 152° |
| 2026-04-16 09:24 | 50.14317 | 0.32765 | 24730 ft | 451 kts | 152° |
| 2026-04-16 09:24 | 50.11687 | 0.35466 | 25009 ft | 454 kts | 152° |
| 2026-04-16 09:24 | 50.09042 | 0.38182 | 25289 ft | 456 kts | 152° |
| 2026-04-16 09:25 | 50.06392 | 0.40902 | 25558 ft | 458 kts | 152° |
| 2026-04-16 09:25 | 50.03721 | 0.43637 | 25846 ft | 461 kts | 152° |
| 2026-04-16 09:25 | 50.01036 | 0.46381 | 26113 ft | 463 kts | 152° |
| 2026-04-16 09:25 | 49.98339 | 0.49133 | 26392 ft | 465 kts | 152° |
| 2026-04-16 09:26 | 49.95627 | 0.51891 | 26635 ft | 467 kts | 152° |
| 2026-04-16 09:26 | 49.92900 | 0.54661 | 26896 ft | 470 kts | 152° |
| 2026-04-16 09:26 | 49.90159 | 0.57441 | 27158 ft | 472 kts | 152° |
| 2026-04-16 09:26 | 49.87405 | 0.60236 | 27419 ft | 474 kts | 152° |
| 2026-04-16 09:27 | 49.84702 | 0.63205 | 27682 ft | 480 kts | 145° |
| 2026-04-16 09:27 | 49.82107 | 0.66484 | 27928 ft | 482 kts | 145° |
| 2026-04-16 09:27 | 49.79507 | 0.69769 | 28184 ft | 485 kts | 145° |
| 2026-04-16 09:27 | 49.76882 | 0.73077 | 28430 ft | 487 kts | 145° |
| 2026-04-16 09:28 | 49.74247 | 0.76384 | 28646 ft | 489 kts | 145° |
| 2026-04-16 09:28 | 49.71637 | 0.79655 | 28860 ft | 491 kts | 145° |
| 2026-04-16 09:28 | 49.68982 | 0.82982 | 29094 ft | 492 kts | 145° |
| 2026-04-16 09:28 | 49.66316 | 0.86318 | 29303 ft | 494 kts | 145° |
| 2026-04-16 09:29 | 49.63638 | 0.89661 | 29500 ft | 496 kts | 145° |
| 2026-04-16 09:29 | 49.60954 | 0.93009 | 29731 ft | 496 kts | 145° |
| 2026-04-16 09:29 | 49.58271 | 0.96347 | 30040 ft | 495 kts | 146° |
| 2026-04-16 09:29 | 49.55591 | 0.99677 | 30313 ft | 495 kts | 146° |
| 2026-04-16 09:30 | 49.52912 | 1.03003 | 30555 ft | 495 kts | 146° |
| 2026-04-16 09:30 | 49.50237 | 1.06320 | 30751 ft | 495 kts | 145° |
| 2026-04-16 09:30 | 49.47555 | 1.09641 | 30979 ft | 495 kts | 145° |
| 2026-04-16 09:30 | 49.44863 | 1.12964 | 31192 ft | 495 kts | 146° |
| 2026-04-16 09:31 | 49.42181 | 1.16267 | 31408 ft | 495 kts | 146° |
| 2026-04-16 09:31 | 49.39492 | 1.19577 | 31623 ft | 495 kts | 146° |
| 2026-04-16 09:31 | 49.36803 | 1.22887 | 31836 ft | 496 kts | 146° |
| 2026-04-16 09:31 | 49.34115 | 1.26198 | 32061 ft | 496 kts | 146° |
| 2026-04-16 09:32 | 49.31425 | 1.29506 | 32281 ft | 496 kts | 146° |
| 2026-04-16 09:32 | 49.28735 | 1.32811 | 32481 ft | 496 kts | 146° |
| 2026-04-16 09:32 | 49.26042 | 1.36109 | 32693 ft | 496 kts | 145° |
| 2026-04-16 09:32 | 49.23347 | 1.39401 | 32905 ft | 496 kts | 146° |
| 2026-04-16 09:33 | 49.20643 | 1.42696 | 33124 ft | 496 kts | 146° |
| 2026-04-16 09:33 | 49.17949 | 1.45974 | 33330 ft | 496 kts | 146° |
| 2026-04-16 09:33 | 49.15248 | 1.49258 | 33528 ft | 496 kts | 146° |
| 2026-04-16 09:33 | 49.12547 | 1.52542 | 33740 ft | 496 kts | 146° |
| 2026-04-16 09:34 | 49.09838 | 1.55832 | 33942 ft | 496 kts | 146° |
| 2026-04-16 09:34 | 49.07134 | 1.59111 | 34134 ft | 497 kts | 146° |
| 2026-04-16 09:34 | 49.04431 | 1.62385 | 34336 ft | 496 kts | 145° |
| 2026-04-16 09:34 | 49.01738 | 1.65645 | 34531 ft | 495 kts | 145° |
| 2026-04-16 09:35 | 48.99041 | 1.68903 | 34738 ft | 495 kts | 146° |
| 2026-04-16 09:35 | 48.96340 | 1.72154 | 34899 ft | 494 kts | 146° |
| 2026-04-16 09:35 | 48.93642 | 1.75396 | 35087 ft | 494 kts | 146° |
| 2026-04-16 09:35 | 48.90942 | 1.78637 | 35239 ft | 495 kts | 145° |
| 2026-04-16 09:36 | 48.88241 | 1.81877 | 35262 ft | 494 kts | 145° |
| 2026-04-16 09:36 | 48.82878 | 1.88303 | 35264 ft | 494 kts | 145° |
| 2026-04-16 09:37 | 48.77476 | 1.94752 | 35270 ft | 494 kts | 146° |
| 2026-04-16 09:37 | 48.72074 | 2.01182 | 35266 ft | 494 kts | 146° |
| 2026-04-16 09:38 | 48.66675 | 2.07589 | 35270 ft | 494 kts | 146° |
| 2026-04-16 09:38 | 48.61267 | 2.13997 | 35270 ft | 494 kts | 146° |
| 2026-04-16 09:39 | 48.56174 | 2.20987 | 35284 ft | 499 kts | 131° |
| 2026-04-16 09:39 | 48.52137 | 2.29523 | 35299 ft | 500 kts | 126° |
| 2026-04-16 09:40 | 48.48177 | 2.38162 | 35296 ft | 501 kts | 126° |
| 2026-04-16 09:40 | 48.44206 | 2.46781 | 35304 ft | 501 kts | 126° |
| 2026-04-16 09:41 | 48.40234 | 2.55381 | 35287 ft | 501 kts | 126° |
| 2026-04-16 09:41 | 48.36250 | 2.63981 | 35304 ft | 500 kts | 126° |
| 2026-04-16 09:42 | 48.32262 | 2.72543 | 35322 ft | 500 kts | 126° |
| 2026-04-16 09:42 | 48.28906 | 2.79608 | 35312 ft | 499 kts | 130° |
| 2026-04-16 09:43 | 48.23963 | 2.86775 | 35309 ft | 493 kts | 145° |
| 2026-04-16 09:43 | 48.18520 | 2.93059 | 35290 ft | 493 kts | 145° |
| 2026-04-16 09:44 | 48.13086 | 2.99329 | 35316 ft | 493 kts | 145° |
| 2026-04-16 09:44 | 48.07490 | 3.05186 | 35314 ft | 488 kts | 155° |
| 2026-04-16 09:45 | 48.01317 | 3.09241 | 35311 ft | 485 kts | 161° |
| 2026-04-16 09:45 | 47.95096 | 3.13135 | 35290 ft | 485 kts | 161° |
| 2026-04-16 09:46 | 47.88875 | 3.17048 | 35304 ft | 485 kts | 161° |
| 2026-04-16 09:46 | 47.82659 | 3.20946 | 35302 ft | 485 kts | 161° |
| 2026-04-16 09:47 | 47.76483 | 3.24806 | 35302 ft | 485 kts | 161° |
| 2026-04-16 09:47 | 47.70265 | 3.28674 | 35292 ft | 484 kts | 160° |
| 2026-04-16 09:48 | 47.64049 | 3.32533 | 35305 ft | 484 kts | 160° |
| 2026-04-16 09:48 | 47.57839 | 3.36389 | 35307 ft | 484 kts | 160° |
| 2026-04-16 09:49 | 47.51627 | 3.40231 | 35295 ft | 484 kts | 160° |
| 2026-04-16 09:49 | 47.45415 | 3.44058 | 35303 ft | 483 kts | 160° |
| 2026-04-16 09:50 | 47.39211 | 3.47877 | 35306 ft | 483 kts | 160° |
| 2026-04-16 09:50 | 47.33005 | 3.51685 | 35288 ft | 483 kts | 160° |
| 2026-04-16 09:51 | 47.26802 | 3.55484 | 35293 ft | 483 kts | 160° |
| 2026-04-16 09:51 | 47.20603 | 3.59277 | 35302 ft | 482 kts | 160° |
| 2026-04-16 09:52 | 47.14403 | 3.63046 | 35304 ft | 482 kts | 160° |
| 2026-04-16 09:52 | 47.08198 | 3.66811 | 35301 ft | 482 kts | 160° |
| 2026-04-16 09:53 | 47.02008 | 3.70561 | 35300 ft | 482 kts | 159° |
| 2026-04-16 09:53 | 46.96324 | 3.75767 | 35299 ft | 486 kts | 138° |
| 2026-04-16 09:54 | 46.92119 | 3.83455 | 35291 ft | 486 kts | 117° |
| 2026-04-16 09:54 | 46.89515 | 3.92546 | 35279 ft | 484 kts | 109° |
| 2026-04-16 09:55 | 46.87085 | 4.01714 | 35293 ft | 484 kts | 110° |
| 2026-04-16 09:55 | 46.84632 | 4.10874 | 35297 ft | 484 kts | 110° |
| 2026-04-16 09:56 | 46.82173 | 4.20033 | 35297 ft | 484 kts | 110° |
| 2026-04-16 09:56 | 46.80099 | 4.29322 | 35294 ft | 480 kts | 99° |
| 2026-04-16 09:57 | 46.78730 | 4.38865 | 35295 ft | 480 kts | 99° |
| 2026-04-16 09:57 | 46.77332 | 4.48405 | 35169 ft | 480 kts | 99° |
| 2026-04-16 09:57 | 46.76640 | 4.53099 | 34932 ft | 480 kts | 100° |
| 2026-04-16 09:58 | 46.75934 | 4.57854 | 34683 ft | 480 kts | 100° |
| 2026-04-16 09:58 | 46.75226 | 4.62614 | 34142 ft | 482 kts | 100° |
| 2026-04-16 09:58 | 46.74515 | 4.67417 | 33207 ft | 486 kts | 100° |
| 2026-04-16 09:58 | 46.73800 | 4.72238 | 32336 ft | 488 kts | 101° |
| 2026-04-16 09:59 | 46.73077 | 4.77087 | 31466 ft | 490 kts | 101° |
| 2026-04-16 09:59 | 46.72354 | 4.81911 | 30975 ft | 483 kts | 101° |
| 2026-04-16 09:59 | 46.71639 | 4.86678 | 30377 ft | 480 kts | 101° |
| 2026-04-16 09:59 | 46.70926 | 4.91411 | 29738 ft | 476 kts | 101° |
| 2026-04-16 10:00 | 46.70219 | 4.96099 | 29171 ft | 470 kts | 101° |
| 2026-04-16 10:00 | 46.69520 | 5.00723 | 28593 ft | 465 kts | 101° |
| 2026-04-16 10:00 | 46.68824 | 5.05296 | 28026 ft | 460 kts | 101° |
| 2026-04-16 10:01 | 46.67447 | 5.14284 | 26907 ft | 450 kts | 102° |
| 2026-04-16 10:01 | 46.66768 | 5.18720 | 26374 ft | 445 kts | 101° |
| 2026-04-16 10:01 | 46.66107 | 5.23086 | 25873 ft | 440 kts | 101° |
| 2026-04-16 10:01 | 46.65457 | 5.27415 | 25365 ft | 435 kts | 101° |
| 2026-04-16 10:02 | 46.64813 | 5.31698 | 24861 ft | 431 kts | 101° |
| 2026-04-16 10:02 | 46.64175 | 5.35934 | 24381 ft | 426 kts | 101° |
| 2026-04-16 10:02 | 46.63538 | 5.40132 | 23912 ft | 422 kts | 101° |
| 2026-04-16 10:02 | 46.62906 | 5.44280 | 23391 ft | 417 kts | 101° |
| 2026-04-16 10:03 | 46.62281 | 5.48370 | 22945 ft | 411 kts | 101° |
| 2026-04-16 10:03 | 46.61660 | 5.52400 | 22503 ft | 405 kts | 102° |
| 2026-04-16 10:03 | 46.61051 | 5.56319 | 22073 ft | 400 kts | 102° |
| 2026-04-16 10:03 | 46.60437 | 5.60237 | 21641 ft | 395 kts | 102° |
| 2026-04-16 10:04 | 46.59827 | 5.64111 | 21204 ft | 390 kts | 102° |
| 2026-04-16 10:04 | 46.59224 | 5.67924 | 20791 ft | 384 kts | 102° |
| 2026-04-16 10:04 | 46.58630 | 5.71690 | 20355 ft | 380 kts | 102° |
| 2026-04-16 10:04 | 46.58007 | 5.75391 | 19921 ft | 376 kts | 107° |
| 2026-04-16 10:05 | 46.57005 | 5.78885 | 19476 ft | 373 kts | 119° |
| 2026-04-16 10:05 | 46.55577 | 5.81998 | 19042 ft | 369 kts | 130° |
| 2026-04-16 10:05 | 46.53791 | 5.84642 | 18589 ft | 365 kts | 141° |
| 2026-04-16 10:05 | 46.51748 | 5.86800 | 18092 ft | 361 kts | 147° |
| 2026-04-16 10:06 | 46.49693 | 5.88854 | 17640 ft | 358 kts | 147° |
| 2026-04-16 10:06 | 46.47651 | 5.90909 | 17178 ft | 356 kts | 146° |
| 2026-04-16 10:06 | 46.45627 | 5.92954 | 16714 ft | 353 kts | 146° |
| 2026-04-16 10:06 | 46.43614 | 5.94981 | 16245 ft | 351 kts | 146° |
| 2026-04-16 10:07 | 46.41612 | 5.96986 | 15814 ft | 348 kts | 146° |
| 2026-04-16 10:07 | 46.39655 | 5.98942 | 15644 ft | 336 kts | 146° |
| 2026-04-16 10:07 | 46.37732 | 6.00824 | 15316 ft | 330 kts | 151° |
| 2026-04-16 10:07 | 46.35622 | 6.01974 | 14928 ft | 323 kts | 172° |
| 2026-04-16 10:08 | 46.33417 | 6.01990 | 14550 ft | 315 kts | 193° |
| 2026-04-16 10:08 | 46.31385 | 6.00934 | 14165 ft | 308 kts | 213° |
| 2026-04-16 10:08 | 46.29743 | 5.99025 | 13641 ft | 303 kts | 228° |
| 2026-04-16 10:08 | 46.28264 | 5.96850 | 13117 ft | 304 kts | 228° |
| 2026-04-16 10:09 | 46.26774 | 5.94669 | 12600 ft | 306 kts | 227° |
| 2026-04-16 10:09 | 46.25276 | 5.92481 | 12079 ft | 306 kts | 226° |
| 2026-04-16 10:09 | 46.23771 | 5.90289 | 11599 ft | 308 kts | 227° |
| 2026-04-16 10:09 | 46.22279 | 5.88117 | 11340 ft | 301 kts | 227° |
| 2026-04-16 10:10 | 46.20818 | 5.85993 | 11081 ft | 296 kts | 226° |
| 2026-04-16 10:10 | 46.19374 | 5.83897 | 10842 ft | 294 kts | 226° |
| 2026-04-16 10:10 | 46.17938 | 5.81814 | 10575 ft | 290 kts | 226° |
| 2026-04-16 10:10 | 46.16518 | 5.79756 | 10211 ft | 289 kts | 226° |
| 2026-04-16 10:11 | 46.15100 | 5.77705 | 9786 ft | 288 kts | 225° |
| 2026-04-16 10:11 | 46.13689 | 5.75669 | 9404 ft | 285 kts | 226° |
| 2026-04-16 10:11 | 46.12314 | 5.73680 | 9266 ft | 275 kts | 226° |
| 2026-04-16 10:11 | 46.10818 | 5.72078 | 9125 ft | 265 kts | 201° |
| 2026-04-16 10:12 | 46.09047 | 5.71740 | 8977 ft | 256 kts | 171° |
| 2026-04-16 10:12 | 46.07417 | 5.72719 | 8599 ft | 255 kts | 138° |
| 2026-04-16 10:12 | 46.06139 | 5.74473 | 8216 ft | 251 kts | 134° |
| 2026-04-16 10:12 | 46.04896 | 5.76240 | 7829 ft | 251 kts | 131° |
| 2026-04-16 10:13 | 46.03938 | 5.78315 | 7373 ft | 259 kts | 104° |
| 2026-04-16 10:13 | 46.03859 | 5.80857 | 6791 ft | 251 kts | 73° |
| 2026-04-16 10:13 | 46.04670 | 5.82986 | 6457 ft | 242 kts | 46° |
| 2026-04-16 10:13 | 46.05815 | 5.84669 | 6129 ft | 226 kts | 43° |
| 2026-04-16 10:14 | 46.06885 | 5.86204 | 5834 ft | 209 kts | 44° |
| 2026-04-16 10:14 | 46.07854 | 5.87608 | 5572 ft | 195 kts | 44° |
| 2026-04-16 10:14 | 46.08779 | 5.88951 | 5338 ft | 183 kts | 44° |
| 2026-04-16 10:14 | 46.09669 | 5.90246 | 5077 ft | 180 kts | 43° |
| 2026-04-16 10:15 | 46.10566 | 5.91549 | 4854 ft | 183 kts | 44° |
| 2026-04-16 10:15 | 46.11457 | 5.92848 | 4615 ft | 181 kts | 44° |
| 2026-04-16 10:15 | 46.12337 | 5.94129 | 4363 ft | 179 kts | 44° |
| 2026-04-16 10:15 | 46.13217 | 5.95413 | 4116 ft | 180 kts | 44° |
| 2026-04-16 10:16 | 46.14106 | 5.96707 | 3880 ft | 181 kts | 45° |
| 2026-04-16 10:16 | 46.14978 | 5.97981 | 3652 ft | 174 kts | 44° |
| 2026-04-16 10:16 | 46.15809 | 5.99194 | 3426 ft | 168 kts | 44° |
| 2026-04-16 10:16 | 46.16605 | 6.00356 | 3199 ft | 160 kts | 44° |
| 2026-04-16 10:17 | 46.17380 | 6.01488 | 2975 ft | 156 kts | 44° |
| 2026-04-16 10:17 | 46.18133 | 6.02589 | 2777 ft | 153 kts | 45° |
| 2026-04-16 10:17 | 46.18865 | 6.03658 | 2568 ft | 148 kts | 45° |
| 2026-04-16 10:17 | 46.19599 | 6.04732 | 2368 ft | 150 kts | 45° |
| 2026-04-16 10:18 | 46.20327 | 6.05797 | 2149 ft | 148 kts | 45° |
| 2026-04-16 10:18 | 46.21053 | 6.06858 | 1954 ft | 149 kts | 45° |
| 2026-04-16 10:18 | 46.21770 | 6.07932 | 1735 ft | 148 kts | 45° |
| 2026-04-16 10:18 | 46.22497 | 6.08983 | 1520 ft | 149 kts | 43° |
| 2026-04-16 10:19 | 46.23212 | 6.10021 | 1412 ft | 136 kts | 44° |
| 2026-04-16 10:19 | 46.23763 | 6.10831 | 1378 ft | 89 kts | 45° |
| 2026-04-16 10:19 | 46.24086 | 6.11294 | 1376 ft | 56 kts | 45° |
| 2026-04-16 10:19 | 46.24275 | 6.11607 | 1370 ft | 36 kts | 59° |
| 2026-04-16 10:20 | 46.24337 | 6.11876 | 1371 ft | 14 kts | 101° |
| 2026-04-16 10:20 | 46.24278 | 6.11910 | 1373 ft | 10 kts | 189° |
| 2026-04-16 10:20 | 46.24225 | 6.11849 | 1374 ft | 10 kts | 226° |
| 2026-04-16 10:20 | 46.24175 | 6.11773 | 1375 ft | 11 kts | 226° |
| 2026-04-16 10:21 | 46.24123 | 6.11694 | 1373 ft | 11 kts | 225° |
| 2026-04-16 10:21 | 46.24067 | 6.11612 | 1375 ft | 14 kts | 225° |
| 2026-04-16 10:21 | 46.23967 | 6.11463 | 1377 ft | 23 kts | 226° |
| 2026-04-16 10:21 | 46.23855 | 6.11302 | 1377 ft | 22 kts | 224° |
| 2026-04-16 10:22 | 46.23758 | 6.11160 | 1381 ft | 19 kts | 226° |
| 2026-04-16 10:22 | 46.23668 | 6.11028 | 1381 ft | 19 kts | 225° |
| 2026-04-16 10:22 | 46.23581 | 6.10898 | 1384 ft | 18 kts | 226° |
| 2026-04-16 10:22 | 46.23498 | 6.10776 | 1383 ft | 16 kts | 225° |
| 2026-04-16 10:23 | 46.23429 | 6.10704 | 1388 ft | 9 kts | 181° |
| 2026-04-16 10:23 | 46.23378 | 6.10755 | 1386 ft | 7 kts | 134° |
| 2026-04-16 10:23 | 46.23352 | 6.10807 | 1386 ft | 7 kts | 107° |
| 2026-04-16 10:23 | 46.23369 | 6.10867 | 1383 ft | 1 kts | 51° |
| 2026-04-16 10:24 | 46.23384 | 6.10888 | 1384 ft | 5 kts | 44° |
| 2026-04-16 10:24 | 46.23413 | 6.10931 | 1383 ft | 6 kts | 45° |
| 2026-04-16 10:24 | 46.23427 | 6.10960 | 1383 ft | 4 kts | 73° |
| 2026-04-16 10:24 | 46.23413 | 6.10993 | 1386 ft | 5 kts | 136° |
| 2026-04-16 10:25 | 46.23388 | 6.11026 | 1385 ft | 2 kts | 137° |
| 2026-04-16 10:25 | 46.23381 | 6.11036 | 1386 ft | 1 kts | 136° |
| 2026-04-16 10:25 | 46.23377 | 6.11041 | 1386 ft | 0 kts | 136° |
| 2026-04-16 10:25 | 46.23377 | 6.11042 | 1386 ft | 0 kts | 136° |